createdAt,value
2024-02-10T00:00:41.672Z,92349.00
2024-02-10T00:01:41.830Z,92345.00
2024-02-10T00:02:41.803Z,92344.00
2024-02-10T00:03:41.890Z,92342.00
2024-02-10T00:04:42.021Z,92347.00
2024-02-10T00:05:42.042Z,92357.00
2024-02-10T00:06:42.075Z,92362.00
2024-02-10T00:07:42.165Z,92367.00
2024-02-10T00:08:42.147Z,92363.00
2024-02-10T00:09:42.200Z,92364.00
2024-02-10T00:10:42.266Z,92365.00
2024-02-10T00:11:42.309Z,92368.00
2024-02-10T00:12:42.355Z,92369.00
2024-02-10T00:13:42.469Z,92367.00
2024-02-10T00:14:42.468Z,92364.00
2024-02-10T00:15:42.526Z,92362.00
2024-02-10T00:16:42.644Z,92364.00
2024-02-10T00:17:42.679Z,92369.00
2024-02-10T00:18:42.754Z,92369.00
2024-02-10T00:19:42.805Z,92366.00
2024-02-10T00:20:42.842Z,92364.00
2024-02-10T00:21:42.898Z,92364.00
2024-02-10T00:22:42.966Z,92366.00
2024-02-10T00:23:43.014Z,92363.00
2024-02-10T00:24:43.025Z,92361.00
2024-02-10T00:25:43.098Z,92365.00
2024-02-10T00:26:43.138Z,92364.00
2024-02-10T00:27:43.196Z,92361.00
2024-02-10T00:28:43.267Z,92357.00
2024-02-10T00:29:43.301Z,92356.00
2024-02-10T00:30:43.371Z,92351.00
2024-02-10T00:31:43.476Z,92344.00
2024-02-10T00:32:43.533Z,92340.00
2024-02-10T00:33:43.611Z,92340.00
2024-02-10T00:34:43.722Z,92344.00
2024-02-10T00:35:43.687Z,92344.00
2024-02-10T00:36:43.764Z,92353.00
2024-02-10T00:37:43.832Z,92351.00
2024-02-10T00:38:43.880Z,92349.00
2024-02-10T00:39:43.941Z,92350.00
2024-02-10T00:40:44.047Z,92350.00
2024-02-10T00:41:44.088Z,92349.00
2024-02-10T00:42:44.145Z,92353.00
2024-02-10T00:43:44.224Z,92354.00
2024-02-10T00:44:44.262Z,92357.00
2024-02-10T00:45:44.353Z,92349.00
2024-02-10T00:46:44.447Z,92348.00
2024-02-10T00:47:44.527Z,92351.00
2024-02-10T00:48:44.600Z,92355.00
2024-02-10T00:49:44.601Z,92354.00
2024-02-10T00:50:44.646Z,92350.00
2024-02-10T00:51:44.709Z,92345.00
2024-02-10T00:52:44.848Z,92344.00
2024-02-10T00:53:44.853Z,92343.00
2024-02-10T00:54:44.897Z,92340.00
2024-02-10T00:55:44.993Z,92343.00
2024-02-10T00:56:45.026Z,92345.00
2024-02-10T00:57:45.105Z,92342.00
2024-02-10T00:58:45.166Z,92340.00
2024-02-10T00:59:45.239Z,92341.00
2024-02-10T01:00:45.329Z,92339.00
2024-02-10T01:01:45.351Z,92340.00
2024-02-10T01:02:45.382Z,92337.00
2024-02-10T01:03:45.525Z,92336.00
2024-02-10T01:04:45.607Z,92335.00
2024-02-10T01:05:45.623Z,92333.00
2024-02-10T01:06:45.656Z,92327.00
2024-02-10T01:07:45.771Z,92321.00
2024-02-10T01:08:45.788Z,92316.00
2024-02-10T01:09:45.849Z,92313.00
2024-02-10T01:10:45.925Z,92318.00
2024-02-10T01:11:45.979Z,92318.00
2024-02-10T01:12:46.018Z,92318.00
2024-02-10T01:13:46.117Z,92317.00
2024-02-10T01:14:46.156Z,92315.00
2024-02-10T01:15:46.238Z,92316.00
2024-02-10T01:16:46.295Z,92316.00
2024-02-10T01:17:46.377Z,92315.00
2024-02-10T01:18:46.446Z,92317.00
2024-02-10T01:19:46.499Z,92320.00
2024-02-10T01:20:46.540Z,92320.00
2024-02-10T01:21:46.632Z,92321.00
2024-02-10T01:22:46.902Z,92322.00
2024-02-10T01:23:46.808Z,92322.00
2024-02-10T01:24:46.777Z,92323.00
2024-02-10T01:25:46.861Z,92326.00
2024-02-10T01:26:46.894Z,92329.00
2024-02-10T01:27:46.964Z,92329.00
2024-02-10T01:28:47.085Z,92330.00
2024-02-10T01:29:47.080Z,92334.00
2024-02-10T01:30:47.134Z,92336.00
2024-02-10T01:31:47.224Z,92331.00
2024-02-10T01:32:47.415Z,92329.00
2024-02-10T01:33:47.373Z,92332.00
2024-02-10T01:34:47.426Z,92330.00
2024-02-10T01:35:47.454Z,92329.00
2024-02-10T01:36:47.542Z,92327.00
2024-02-10T01:37:47.683Z,92328.00
2024-02-10T01:38:47.667Z,92332.00
2024-02-10T01:39:47.760Z,92328.00
2024-02-10T01:40:47.815Z,92330.00
2024-02-10T01:41:47.870Z,92322.00
2024-02-10T01:42:47.963Z,92323.00
2024-02-10T01:43:48.013Z,92325.00
2024-02-10T01:44:48.038Z,92328.00
2024-02-10T01:45:48.094Z,92331.00
2024-02-10T01:46:48.228Z,92327.00
2024-02-10T01:47:48.257Z,92328.00
2024-02-10T01:48:48.327Z,92333.00
2024-02-10T01:49:48.622Z,92334.00
2024-02-10T01:50:48.483Z,92337.00
2024-02-10T01:51:48.491Z,92343.00
2024-02-10T01:52:48.623Z,92345.00
2024-02-10T01:53:48.641Z,92349.00
2024-02-10T01:54:48.735Z,92354.00
2024-02-10T01:55:48.741Z,92350.00
2024-02-10T01:56:48.779Z,92349.00
2024-02-10T01:57:48.821Z,92348.00
2024-02-10T01:58:49.181Z,92341.00
2024-02-10T01:59:48.949Z,92337.00
2024-02-10T02:00:49.062Z,92339.00
2024-02-10T02:01:49.080Z,92342.00
2024-02-10T02:02:49.102Z,92342.00
2024-02-10T02:03:49.191Z,92342.00
2024-02-10T02:04:49.249Z,92343.00
2024-02-10T02:05:49.285Z,92341.00
2024-02-10T02:06:49.310Z,92340.00
2024-02-10T02:07:49.375Z,92340.00
2024-02-10T02:08:49.808Z,92340.00
2024-02-10T02:09:49.499Z,92342.00
2024-02-10T02:10:49.659Z,92342.00
2024-02-10T02:11:49.619Z,92344.00
2024-02-10T02:12:49.849Z,92343.00
2024-02-10T02:13:49.839Z,92343.00
2024-02-10T02:14:49.814Z,92340.00
2024-02-10T02:15:49.861Z,92340.00
2024-02-10T02:16:50.105Z,92337.00
2024-02-10T02:17:50.034Z,92337.00
2024-02-10T02:18:50.095Z,92335.00
2024-02-10T02:19:50.208Z,92344.00
2024-02-10T02:20:50.206Z,92348.00
2024-02-10T02:21:50.253Z,92350.00
2024-02-10T02:22:50.447Z,92349.00
2024-02-10T02:23:50.388Z,92345.00
2024-02-10T02:24:50.456Z,92341.00
2024-02-10T02:25:50.598Z,92338.00
2024-02-10T02:26:50.572Z,92340.00
2024-02-10T02:27:50.723Z,92339.00
2024-02-10T02:28:50.761Z,92340.00
2024-02-10T02:29:50.757Z,92342.00
2024-02-10T02:30:50.827Z,92342.00
2024-02-10T02:31:50.934Z,92340.00
2024-02-10T02:32:51.060Z,92338.00
2024-02-10T02:33:51.015Z,92340.00
2024-02-10T02:34:51.151Z,92338.00
2024-02-10T02:35:51.148Z,92338.00
2024-02-10T02:36:51.207Z,92328.00
2024-02-10T02:37:51.281Z,92332.00
2024-02-10T02:38:51.331Z,92332.00
2024-02-10T02:39:51.406Z,92333.00
2024-02-10T02:40:51.583Z,92332.00
2024-02-10T02:41:51.518Z,92334.00
2024-02-10T02:42:51.586Z,92337.00
2024-02-10T02:43:51.734Z,92343.00
2024-02-10T02:44:51.712Z,92338.00
2024-02-10T02:45:51.776Z,92335.00
2024-02-10T02:46:51.861Z,92331.00
2024-02-10T02:47:51.934Z,92326.00
2024-02-10T02:48:52.063Z,92323.00
2024-02-10T02:49:52.025Z,92323.00
2024-02-10T02:50:52.074Z,92322.00
2024-02-10T02:51:52.126Z,92322.00
2024-02-10T02:52:52.281Z,92324.00
2024-02-10T02:53:52.263Z,92325.00
2024-02-10T02:54:52.315Z,92325.00
2024-02-10T02:55:52.399Z,92311.00
2024-02-10T02:56:52.435Z,92308.00
2024-02-10T02:57:52.492Z,92309.00
2024-02-10T02:58:52.758Z,92310.00
2024-02-10T02:59:52.593Z,92308.00
2024-02-10T03:00:52.673Z,92309.00
2024-02-10T03:01:53.104Z,92316.00
2024-02-10T03:02:52.752Z,92324.00
2024-02-10T03:03:52.829Z,92322.00
2024-02-10T03:04:52.921Z,92319.00
2024-02-10T03:05:52.921Z,92313.00
2024-02-10T03:06:53.032Z,92306.00
2024-02-10T03:07:53.163Z,92302.00
2024-02-10T03:08:53.119Z,92297.00
2024-02-10T03:09:53.175Z,92296.00
2024-02-10T03:10:53.315Z,92303.00
2024-02-10T03:11:53.331Z,92307.00
2024-02-10T03:12:53.366Z,92311.00
2024-02-10T03:13:53.551Z,92307.00
2024-02-10T03:14:53.484Z,92307.00
2024-02-10T03:15:53.551Z,92306.00
2024-02-10T03:16:53.659Z,92301.00
2024-02-10T03:17:53.732Z,92298.00
2024-02-10T03:18:53.787Z,92296.00
2024-02-10T03:19:53.857Z,92294.00
2024-02-10T03:20:53.901Z,92291.00
2024-02-10T03:21:53.968Z,92287.00
2024-02-10T03:22:54.040Z,92291.00
2024-02-10T03:23:54.073Z,92297.00
2024-02-10T03:24:54.148Z,92294.00
2024-02-10T03:25:54.264Z,92289.00
2024-02-10T03:26:54.269Z,92291.00
2024-02-10T03:27:54.343Z,92289.00
2024-02-10T03:28:54.419Z,92284.00
2024-02-10T03:29:54.455Z,92281.00
2024-02-10T03:30:54.518Z,92288.00
2024-02-10T03:31:54.642Z,92286.00
2024-02-10T03:32:54.792Z,92286.00
2024-02-10T03:33:54.868Z,92281.00
2024-02-10T03:34:54.886Z,92283.00
2024-02-10T03:35:54.876Z,92285.00
2024-02-10T03:36:54.889Z,92283.00
2024-02-10T03:37:55.069Z,92277.00
2024-02-10T03:38:55.048Z,92275.00
2024-02-10T03:39:55.083Z,92266.00
2024-02-10T03:40:55.259Z,92265.00
2024-02-10T03:41:55.195Z,92269.00
2024-02-10T03:42:55.265Z,92278.00
2024-02-10T03:43:55.428Z,92278.00
2024-02-10T03:44:55.396Z,92278.00
2024-02-10T03:45:55.462Z,92274.00
2024-02-10T03:46:55.595Z,92264.00
2024-02-10T03:47:55.670Z,92263.00
2024-02-10T03:48:55.688Z,92262.00
2024-02-10T03:49:55.963Z,92267.00
2024-02-10T03:50:55.772Z,92267.00
2024-02-10T03:51:55.854Z,92270.00
2024-02-10T03:52:55.952Z,92272.00
2024-02-10T03:53:55.965Z,92278.00
2024-02-10T03:54:56.039Z,92274.00
2024-02-10T03:55:56.206Z,92270.00
2024-02-10T03:56:56.159Z,92268.00
2024-02-10T03:57:56.226Z,92267.00
2024-02-10T03:58:56.352Z,92266.00
2024-02-10T03:59:56.395Z,92266.00
2024-02-10T04:00:56.431Z,92270.00
2024-02-10T04:01:56.534Z,92267.00
2024-02-10T04:02:56.561Z,92265.00
2024-02-10T04:03:56.687Z,92263.00
2024-02-10T04:04:56.746Z,92263.00
2024-02-10T04:05:56.774Z,92267.00
2024-02-10T04:06:56.921Z,92269.00
2024-02-10T04:07:56.935Z,92269.00
2024-02-10T04:08:56.962Z,92270.00
2024-02-10T04:09:57.033Z,92269.00
2024-02-10T04:10:57.193Z,92265.00
2024-02-10T04:11:57.187Z,92269.00
2024-02-10T04:12:57.308Z,92272.00
2024-02-10T04:13:57.417Z,92276.00
2024-02-10T04:14:57.354Z,92281.00
2024-02-10T04:15:57.415Z,92287.00
2024-02-10T04:16:57.602Z,92274.00
2024-02-10T04:17:57.651Z,92271.00
2024-02-10T04:18:57.653Z,92271.00
2024-02-10T04:19:57.684Z,92274.00
2024-02-10T04:20:57.764Z,92277.00
2024-02-10T04:21:57.819Z,92283.00
2024-02-10T04:22:57.915Z,92287.00
2024-02-10T04:23:57.947Z,92290.00
2024-02-10T04:24:58.006Z,92293.00
2024-02-10T04:25:58.195Z,92294.00
2024-02-10T04:26:58.149Z,92297.00
2024-02-10T04:27:58.219Z,92296.00
2024-02-10T04:28:58.384Z,92298.00
2024-02-10T04:29:58.346Z,92303.00
2024-02-10T04:30:58.429Z,92301.00
2024-02-10T04:31:58.592Z,92302.00
2024-02-10T04:32:58.612Z,92294.00
2024-02-10T04:33:58.728Z,92295.00
2024-02-10T04:34:58.751Z,92294.00
2024-02-10T04:35:58.751Z,92298.00
2024-02-10T04:36:58.794Z,92300.00
2024-02-10T04:37:58.934Z,92303.00
2024-02-10T04:38:58.927Z,92300.00
2024-02-10T04:39:58.986Z,92299.00
2024-02-10T04:40:59.144Z,92298.00
2024-02-10T04:41:59.129Z,92299.00
2024-02-10T04:42:59.216Z,92297.00
2024-02-10T04:43:59.315Z,92294.00
2024-02-10T04:44:59.307Z,92293.00
2024-02-10T04:45:59.365Z,92290.00
2024-02-10T04:46:59.464Z,92291.00
2024-02-10T04:48:06.871Z,92289.00
2024-02-10T04:49:06.837Z,92291.00
2024-02-10T04:50:06.836Z,92292.00
2024-02-10T04:51:06.787Z,92293.00
2024-02-10T04:52:06.785Z,92291.00
2024-02-10T04:53:06.781Z,92293.00
2024-02-10T04:54:06.794Z,92289.00
2024-02-10T04:55:06.789Z,92289.00
2024-02-10T04:56:06.865Z,92285.00
2024-02-10T04:57:06.789Z,92279.00
2024-02-10T04:58:06.793Z,92279.00
2024-02-10T04:59:06.863Z,92280.00
2024-02-10T05:00:06.808Z,92280.00
2024-02-10T05:01:06.894Z,92282.00
2024-02-10T05:02:06.841Z,92286.00
2024-02-10T05:03:06.866Z,92289.00
2024-02-10T05:04:06.798Z,92287.00
2024-02-10T05:05:06.864Z,92284.00
2024-02-10T05:06:06.856Z,92281.00
2024-02-10T05:07:06.827Z,92278.00
2024-02-10T05:08:06.844Z,92273.00
2024-02-10T05:09:06.811Z,92276.00
2024-02-10T05:10:06.837Z,92280.00
2024-02-10T05:11:06.892Z,92282.00
2024-02-10T05:12:06.938Z,92282.00
2024-02-10T05:13:06.970Z,92279.00
2024-02-10T05:14:07.036Z,92278.00
2024-02-10T05:15:07.078Z,92277.00
2024-02-10T05:16:07.136Z,92275.00
2024-02-10T05:17:07.196Z,92271.00
2024-02-10T05:18:07.403Z,92265.00
2024-02-10T05:19:07.399Z,92263.00
2024-02-10T05:20:07.453Z,92263.00
2024-02-10T05:21:07.420Z,92259.00
2024-02-10T05:22:07.475Z,92257.00
2024-02-10T05:23:07.538Z,92253.00
2024-02-10T05:24:07.601Z,92255.00
2024-02-10T05:25:07.675Z,92259.00
2024-02-10T05:26:07.703Z,92262.00
2024-02-10T05:27:07.756Z,92264.00
2024-02-10T05:28:07.841Z,92262.00
2024-02-10T05:29:07.878Z,92257.00
2024-02-10T05:30:07.919Z,92253.00
2024-02-10T05:31:07.982Z,92250.00
2024-02-10T05:32:08.034Z,92250.00
2024-02-10T05:33:08.132Z,92248.00
2024-02-10T05:34:08.200Z,92255.00
2024-02-10T05:35:08.230Z,92260.00
2024-02-10T05:36:08.247Z,92257.00
2024-02-10T05:37:08.313Z,92252.00
2024-02-10T05:38:08.390Z,92253.00
2024-02-10T05:39:08.502Z,92249.00
2024-02-10T05:40:08.475Z,92245.00
2024-02-10T05:41:08.593Z,92240.00
2024-02-10T05:42:08.596Z,92235.00
2024-02-10T05:43:08.695Z,92243.00
2024-02-10T05:44:08.717Z,92242.00
2024-02-10T05:45:08.768Z,92242.00
2024-02-10T05:46:08.826Z,92238.00
2024-02-10T05:47:11.304Z,92234.00
2024-02-10T05:48:08.980Z,92234.00
2024-02-10T05:49:08.911Z,92233.00
2024-02-10T05:50:08.910Z,92236.00
2024-02-10T05:51:08.901Z,92239.00
2024-02-10T05:52:08.892Z,92233.00
2024-02-10T05:53:09.038Z,92233.00
2024-02-10T05:54:08.902Z,92228.00
2024-02-10T05:55:08.896Z,92229.00
2024-02-10T05:56:08.977Z,92231.00
2024-02-10T05:57:08.908Z,92237.00
2024-02-10T05:58:08.900Z,92238.00
2024-02-10T05:59:08.916Z,92236.00
2024-02-10T06:00:08.918Z,92237.00
2024-02-10T06:01:08.938Z,92233.00
2024-02-10T06:02:08.960Z,92234.00
2024-02-10T06:03:08.938Z,92235.00
2024-02-10T06:04:08.971Z,92241.00
2024-02-10T06:05:09.007Z,92240.00
2024-02-10T06:06:08.995Z,92243.00
2024-02-10T06:07:08.911Z,92241.00
2024-02-10T06:08:08.955Z,92237.00
2024-02-10T06:09:09.041Z,92235.00
2024-02-10T06:10:09.065Z,92235.00
2024-02-10T06:11:09.137Z,92231.00
2024-02-10T06:12:09.183Z,92228.00
2024-02-10T06:13:09.228Z,92226.00
2024-02-10T06:14:09.360Z,92227.00
2024-02-10T06:15:09.359Z,92235.00
2024-02-10T06:16:09.425Z,92240.00
2024-02-10T06:17:09.469Z,92243.00
2024-02-10T06:18:09.611Z,92242.00
2024-02-10T06:19:09.640Z,92243.00
2024-02-10T06:20:09.697Z,92247.00
2024-02-10T06:21:09.707Z,92250.00
2024-02-10T06:22:09.764Z,92251.00
2024-02-10T06:23:09.830Z,92250.00
2024-02-10T06:24:09.879Z,92248.00
2024-02-10T06:25:09.930Z,92249.00
2024-02-10T06:26:10.068Z,92255.00
2024-02-10T06:27:10.060Z,92261.00
2024-02-10T06:28:10.115Z,92261.00
2024-02-10T06:29:10.204Z,92259.00
2024-02-10T06:30:10.245Z,92252.00
2024-02-10T06:31:10.333Z,92249.00
2024-02-10T06:32:10.469Z,92243.00
2024-02-10T06:33:10.575Z,92237.00
2024-02-10T06:34:10.572Z,92234.00
2024-02-10T06:35:10.712Z,92234.00
2024-02-10T06:36:10.572Z,92233.00
2024-02-10T06:37:10.642Z,92240.00
2024-02-10T06:38:13.474Z,92241.00
2024-02-10T06:39:10.690Z,92236.00
2024-02-10T06:40:10.714Z,92234.00
2024-02-10T06:41:10.732Z,92240.00
2024-02-10T06:42:10.710Z,92247.00
2024-02-10T06:43:10.705Z,92246.00
2024-02-10T06:44:10.693Z,92243.00
2024-02-10T06:45:10.696Z,92245.00
2024-02-10T06:46:10.709Z,92251.00
2024-02-10T06:47:10.730Z,92249.00
2024-02-10T06:48:10.874Z,92248.00
2024-02-10T06:49:10.773Z,92248.00
2024-02-10T06:50:10.704Z,92246.00
2024-02-10T06:51:10.701Z,92241.00
2024-02-10T06:52:10.702Z,92232.00
2024-02-10T06:53:10.768Z,92228.00
2024-02-10T06:54:10.711Z,92231.00
2024-02-10T06:55:10.720Z,92231.00
2024-02-10T06:56:10.744Z,92232.00
2024-02-10T06:57:10.717Z,92230.00
2024-02-10T06:58:10.726Z,92227.00
2024-02-10T06:59:10.728Z,92226.00
2024-02-10T07:00:10.783Z,92226.00
2024-02-10T07:01:12.178Z,92228.00
2024-02-10T07:02:10.792Z,92238.00
2024-02-10T07:03:10.767Z,92245.00
2024-02-10T07:04:10.727Z,92247.00
2024-02-10T07:05:11.071Z,92247.00
2024-02-10T07:06:10.988Z,92245.00
2024-02-10T07:07:10.722Z,92245.00
2024-02-10T07:08:10.723Z,92244.00
2024-02-10T07:09:10.728Z,92242.00
2024-02-10T07:10:10.735Z,92244.00
2024-02-10T07:11:10.733Z,92245.00
2024-02-10T07:12:10.735Z,92248.00
2024-02-10T07:13:10.734Z,92245.00
2024-02-10T07:14:10.743Z,92237.00
2024-02-10T07:15:10.748Z,92230.00
2024-02-10T07:16:10.733Z,92228.00
2024-02-10T07:17:10.748Z,92234.00
2024-02-10T07:18:10.936Z,92230.00
2024-02-10T07:19:10.856Z,92234.00
2024-02-10T07:20:10.762Z,92234.00
2024-02-10T07:21:10.755Z,92230.00
2024-02-10T07:22:10.759Z,92225.00
2024-02-10T07:23:10.749Z,92225.00
2024-02-10T07:24:10.766Z,92229.00
2024-02-10T07:25:10.749Z,92233.00
2024-02-10T07:26:10.753Z,92231.00
2024-02-10T07:27:10.755Z,92230.00
2024-02-10T07:28:11.013Z,92234.00
2024-02-10T07:29:10.766Z,92234.00
2024-02-10T07:30:10.770Z,92239.00
2024-02-10T07:31:13.354Z,92238.00
2024-02-10T07:32:10.754Z,92231.00
2024-02-10T07:33:12.231Z,92235.00
2024-02-10T07:34:10.773Z,92241.00
2024-02-10T07:35:10.804Z,92239.00
2024-02-10T07:36:10.781Z,92237.00
2024-02-10T07:37:10.755Z,92229.00
2024-02-10T07:38:11.390Z,92229.00
2024-02-10T07:39:10.860Z,92228.00
2024-02-10T07:40:10.881Z,92225.00
2024-02-10T07:41:11.020Z,92223.00
2024-02-10T07:42:11.000Z,92225.00
2024-02-10T07:43:11.066Z,92232.00
2024-02-10T07:44:11.133Z,92222.00
2024-02-10T07:45:11.182Z,92224.00
2024-02-10T07:46:11.237Z,92227.00
2024-02-10T07:47:11.297Z,92232.00
2024-02-10T07:48:11.452Z,92232.00
2024-02-10T07:49:11.428Z,92232.00
2024-02-10T07:50:11.475Z,92228.00
2024-02-10T07:51:11.524Z,92233.00
2024-02-10T07:52:11.590Z,92235.00
2024-02-10T07:53:11.685Z,92234.00
2024-02-10T07:54:11.725Z,92237.00
2024-02-10T07:55:11.812Z,92244.00
2024-02-10T07:56:11.846Z,92248.00
2024-02-10T07:57:11.912Z,92249.00
2024-02-10T07:58:11.958Z,92252.00
2024-02-10T07:59:12.177Z,92254.00
2024-02-10T08:00:12.093Z,92253.00
2024-02-10T08:01:12.178Z,92249.00
2024-02-10T08:02:12.323Z,92249.00
2024-02-10T08:03:12.291Z,92247.00
2024-02-10T08:04:12.329Z,92244.00
2024-02-10T08:05:13.901Z,92247.00
2024-02-10T08:06:12.438Z,92247.00
2024-02-10T08:07:12.397Z,92243.00
2024-02-10T08:08:12.740Z,92245.00
2024-02-10T08:09:12.426Z,92244.00
2024-02-10T08:10:12.395Z,92242.00
2024-02-10T08:11:12.468Z,92242.00
2024-02-10T08:12:12.402Z,92247.00
2024-02-10T08:13:12.397Z,92240.00
2024-02-10T08:14:12.416Z,92233.00
2024-02-10T08:15:12.427Z,92238.00
2024-02-10T08:16:12.457Z,92234.00
2024-02-10T08:17:12.478Z,92229.00
2024-02-10T08:18:12.479Z,92234.00
2024-02-10T08:19:12.476Z,92238.00
2024-02-10T08:20:12.757Z,92233.00
2024-02-10T08:21:12.413Z,92234.00
2024-02-10T08:22:12.412Z,92243.00
2024-02-10T08:23:12.413Z,92243.00
2024-02-10T08:24:12.418Z,92246.00
2024-02-10T08:25:12.415Z,92247.00
2024-02-10T08:26:12.462Z,92245.00
2024-02-10T08:27:12.425Z,92242.00
2024-02-10T08:28:12.594Z,92246.00
2024-02-10T08:29:12.487Z,92253.00
2024-02-10T08:30:12.466Z,92250.00
2024-02-10T08:31:12.419Z,92239.00
2024-02-10T08:32:12.435Z,92239.00
2024-02-10T08:33:12.499Z,92231.00
2024-02-10T08:34:12.513Z,92232.00
2024-02-10T08:35:12.459Z,92231.00
2024-02-10T08:36:12.439Z,92235.00
2024-02-10T08:37:12.433Z,92241.00
2024-02-10T08:38:12.447Z,92249.00
2024-02-10T08:39:12.473Z,92239.00
2024-02-10T08:40:12.551Z,92234.00
2024-02-10T08:41:12.609Z,92235.00
2024-02-10T08:42:12.666Z,92226.00
2024-02-10T08:43:12.722Z,92224.00
2024-02-10T08:44:12.803Z,92231.00
2024-02-10T08:45:12.872Z,92232.00
2024-02-10T08:46:12.956Z,92229.00
2024-02-10T08:47:12.983Z,92223.00
2024-02-10T08:48:13.096Z,92230.00
2024-02-10T08:49:13.205Z,92227.00
2024-02-10T08:50:13.275Z,92217.00
2024-02-10T08:51:13.222Z,92217.00
2024-02-10T08:52:16.627Z,92216.00
2024-02-10T08:53:13.332Z,92218.00
2024-02-10T08:54:13.304Z,92218.00
2024-02-10T08:55:13.299Z,92216.00
2024-02-10T08:56:13.329Z,92213.00
2024-02-10T08:57:13.305Z,92215.00
2024-02-10T08:58:13.299Z,92207.00
2024-02-10T08:59:13.303Z,92207.00
2024-02-10T09:00:13.306Z,92217.00
2024-02-10T09:01:13.373Z,92209.00
2024-02-10T09:02:13.340Z,92214.00
2024-02-10T09:03:13.339Z,92211.00
2024-02-10T09:04:13.334Z,92204.00
2024-02-10T09:05:13.481Z,92189.00
2024-02-10T09:06:13.328Z,92198.00
2024-02-10T09:07:13.308Z,92200.00
2024-02-10T09:08:13.370Z,92204.00
2024-02-10T09:09:13.333Z,92197.00
2024-02-10T09:10:13.316Z,92208.00
2024-02-10T09:11:13.320Z,92195.00
2024-02-10T09:12:13.322Z,92203.00
2024-02-10T09:13:13.376Z,92201.00
2024-02-10T09:14:13.453Z,92200.00
2024-02-10T09:15:13.521Z,92208.00
2024-02-10T09:16:13.615Z,92208.00
2024-02-10T09:17:13.730Z,92206.00
2024-02-10T09:18:13.867Z,92211.00
2024-02-10T09:19:13.799Z,92204.00
2024-02-10T09:20:13.880Z,92207.00
2024-02-10T09:21:13.888Z,92216.00
2024-02-10T09:22:13.938Z,92223.00
2024-02-10T09:23:14.012Z,92231.00
2024-02-10T09:24:14.058Z,92234.00
2024-02-10T09:25:14.120Z,92231.00
2024-02-10T09:26:14.192Z,92226.00
2024-02-10T09:27:14.238Z,92229.00
2024-02-10T09:28:14.295Z,92227.00
2024-02-10T09:29:14.373Z,92226.00
2024-02-10T09:30:14.441Z,92222.00
2024-02-10T09:31:16.050Z,92221.00
2024-02-10T09:32:14.499Z,92218.00
2024-02-10T09:33:14.550Z,92219.00
2024-02-10T09:34:14.601Z,92217.00
2024-02-10T09:35:18.189Z,92214.00
2024-02-10T09:36:15.578Z,92214.00
2024-02-10T09:37:14.503Z,92204.00
2024-02-10T09:38:14.898Z,92194.00
2024-02-10T09:39:14.516Z,92195.00
2024-02-10T09:40:14.520Z,92187.00
2024-02-10T09:41:14.506Z,92189.00
2024-02-10T09:42:14.513Z,92183.00
2024-02-10T09:43:14.516Z,92182.00
2024-02-10T09:44:14.564Z,92182.00
2024-02-10T09:45:14.616Z,92176.00
2024-02-10T09:46:14.693Z,92172.00
2024-02-10T09:47:14.762Z,92160.00
2024-02-10T09:48:14.911Z,92165.00
2024-02-10T09:49:15.071Z,92168.00
2024-02-10T09:50:23.722Z,92154.00
2024-02-10T09:51:15.978Z,92152.00
2024-02-10T09:52:14.954Z,92148.00
2024-02-10T09:53:14.961Z,92147.00
2024-02-10T09:54:15.450Z,92144.00
2024-02-10T09:55:15.010Z,92136.00
2024-02-10T09:56:15.102Z,92127.00
2024-02-10T09:57:14.969Z,92116.00
2024-02-10T09:58:14.971Z,92117.00
2024-02-10T09:59:15.009Z,92095.00
2024-02-10T10:00:15.066Z,92101.00
2024-02-10T10:01:15.286Z,92099.00
2024-02-10T10:02:15.215Z,92095.00
2024-02-10T10:03:15.328Z,92092.00
2024-02-10T10:04:15.284Z,92096.00
2024-02-10T10:05:15.587Z,92093.00
2024-02-10T10:06:15.550Z,92101.00
2024-02-10T10:07:15.464Z,92099.00
2024-02-10T10:08:15.523Z,92100.00
2024-02-10T10:09:15.609Z,92095.00
2024-02-10T10:10:15.622Z,92098.00
2024-02-10T10:11:15.695Z,92092.00
2024-02-10T10:12:15.725Z,92092.00
2024-02-10T10:13:15.796Z,92086.00
2024-02-10T10:14:15.866Z,92092.00
2024-02-10T10:15:15.915Z,92089.00
2024-02-10T10:16:15.961Z,92087.00
2024-02-10T10:17:16.200Z,92079.00
2024-02-10T10:18:16.311Z,92086.00
2024-02-10T10:19:16.126Z,92080.00
2024-02-10T10:20:16.181Z,92082.00
2024-02-10T10:21:16.229Z,92073.00
2024-02-10T10:22:16.292Z,92071.00
2024-02-10T10:23:16.341Z,92072.00
2024-02-10T10:24:16.378Z,92066.00
2024-02-10T10:25:16.431Z,92066.00
2024-02-10T10:26:16.535Z,92065.00
2024-02-10T10:27:16.545Z,92064.00
2024-02-10T10:28:16.592Z,92060.00
2024-02-10T10:29:16.640Z,92056.00
2024-02-10T10:30:16.706Z,92056.00
2024-02-10T10:31:17.496Z,92052.00
2024-02-10T10:32:17.009Z,92048.00
2024-02-10T10:33:16.932Z,92045.00
2024-02-10T10:34:16.919Z,92038.00
2024-02-10T10:35:16.956Z,92039.00
2024-02-10T10:36:17.037Z,92039.00
2024-02-10T10:37:17.053Z,92039.00
2024-02-10T10:38:17.108Z,92043.00
2024-02-10T10:39:17.168Z,92043.00
2024-02-10T10:40:17.222Z,92044.00
2024-02-10T10:41:17.283Z,92043.00
2024-02-10T10:42:17.340Z,92043.00
2024-02-10T10:43:17.391Z,92046.00
2024-02-10T10:44:17.449Z,92042.00
2024-02-10T10:45:17.511Z,92036.00
2024-02-10T10:46:17.579Z,92027.00
2024-02-10T10:47:17.692Z,92014.00
2024-02-10T10:48:17.729Z,92014.00
2024-02-10T10:49:17.816Z,92018.00
2024-02-10T10:50:17.761Z,92008.00
2024-02-10T10:51:17.787Z,92007.00
2024-02-10T10:52:17.825Z,92015.00
2024-02-10T10:53:17.903Z,92017.00
2024-02-10T10:54:17.929Z,92015.00
2024-02-10T10:55:17.967Z,92018.00
2024-02-10T10:56:18.090Z,92021.00
2024-02-10T10:57:18.492Z,92019.00
2024-02-10T10:58:18.183Z,92012.00
2024-02-10T10:59:18.128Z,92004.00
2024-02-10T11:00:18.170Z,91998.00
2024-02-10T11:01:18.751Z,91994.00
2024-02-10T11:02:24.154Z,91984.00
2024-02-10T11:03:19.311Z,91975.00
2024-02-10T11:04:18.272Z,91985.00
2024-02-10T11:05:18.685Z,91985.00
2024-02-10T11:06:18.327Z,91988.00
2024-02-10T11:07:18.302Z,91989.00
2024-02-10T11:08:18.295Z,91988.00
2024-02-10T11:09:18.306Z,91990.00
2024-02-10T11:10:18.291Z,91990.00
2024-02-10T11:11:18.284Z,91995.00
2024-02-10T11:12:18.288Z,91993.00
2024-02-10T11:13:18.287Z,91997.00
2024-02-10T11:14:18.302Z,91989.00
2024-02-10T11:15:18.313Z,91990.00
2024-02-10T11:16:18.354Z,91979.00
2024-02-10T11:17:18.521Z,91988.00
2024-02-10T11:18:18.633Z,91976.00
2024-02-10T11:19:18.799Z,91971.00
2024-02-10T11:20:18.565Z,91967.00
2024-02-10T11:21:18.619Z,91961.00
2024-02-10T11:22:18.631Z,91961.00
2024-02-10T11:23:18.685Z,91960.00
2024-02-10T11:24:18.744Z,91954.00
2024-02-10T11:25:18.911Z,91953.00
2024-02-10T11:26:18.818Z,91955.00
2024-02-10T11:27:18.863Z,91964.00
2024-02-10T11:28:18.961Z,91958.00
2024-02-10T11:29:19.000Z,91961.00
2024-02-10T11:30:19.024Z,91955.00
2024-02-10T11:31:19.173Z,91953.00
2024-02-10T11:32:19.099Z,91957.00
2024-02-10T11:33:19.311Z,91956.00
2024-02-10T11:34:20.188Z,91958.00
2024-02-10T11:35:19.327Z,91958.00
2024-02-10T11:36:19.304Z,91958.00
2024-02-10T11:37:19.411Z,91951.00
2024-02-10T11:38:19.392Z,91943.00
2024-02-10T11:39:19.434Z,91939.00
2024-02-10T11:40:19.542Z,91939.00
2024-02-10T11:41:19.524Z,91934.00
2024-02-10T11:42:19.570Z,91935.00
2024-02-10T11:43:19.754Z,91946.00
2024-02-10T11:44:19.661Z,91937.00
2024-02-10T11:45:19.710Z,91943.00